sensor_id;sensor_type;location;lat;lon;timestamp;pressure;altitude;pressure_sealevel;temperature;humidity
49709;BME280;35601;55.902;13.606;2023-01-29T00:02:11;101187.26;;;0.24;88.09
49709;BME280;35601;55.902;13.606;2023-01-29T00:04:37;101185.55;;;0.49;87.91
49709;BME280;35601;55.902;13.606;2023-01-29T00:07:03;101187.42;;;0.47;88.08
49709;BME280;35601;55.902;13.606;2023-01-29T00:09:28;101183.83;;;0.50;88.05
49709;BME280;35601;55.902;13.606;2023-01-29T00:11:54;101171.82;;;0.54;87.51
49709;BME280;35601;55.902;13.606;2023-01-29T00:14:20;101163.77;;;0.21;87.66
49709;BME280;35601;55.902;13.606;2023-01-29T00:16:45;101156.05;;;0.24;87.72
49709;BME280;35601;55.902;13.606;2023-01-29T00:19:10;101154.62;;;0.53;87.43
49709;BME280;35601;55.902;13.606;2023-01-29T00:21:36;101156.71;;;0.27;87.50
49709;BME280;35601;55.902;13.606;2023-01-29T00:24:02;101155.95;;;0.25;87.63
49709;BME280;35601;55.902;13.606;2023-01-29T00:26:27;101156.62;;;0.42;88.07
49709;BME280;35601;55.902;13.606;2023-01-29T00:28:53;101160.36;;;0.37;88.18
49709;BME280;35601;55.902;13.606;2023-01-29T00:31:20;101167.28;;;0.35;88.39
49709;BME280;35601;55.902;13.606;2023-01-29T00:33:44;101171.29;;;0.43;88.11
49709;BME280;35601;55.902;13.606;2023-01-29T00:36:11;101171.04;;;0.49;87.88
49709;BME280;35601;55.902;13.606;2023-01-29T00:38:35;101165.63;;;0.38;88.27
49709;BME280;35601;55.902;13.606;2023-01-29T00:41:05;101160.70;;;0.19;88.12
49709;BME280;35601;55.902;13.606;2023-01-29T00:43:26;101160.04;;;0.51;87.76
49709;BME280;35601;55.902;13.606;2023-01-29T00:45:51;101155.62;;;0.24;87.91
49709;BME280;35601;55.902;13.606;2023-01-29T00:48:17;101150.14;;;0.24;87.59
49709;BME280;35601;55.902;13.606;2023-01-29T00:50:42;101144.63;;;0.15;88.13
49709;BME280;35601;55.902;13.606;2023-01-29T00:53:08;101144.61;;;0.35;88.47
49709;BME280;35601;55.902;13.606;2023-01-29T00:55:34;101142.29;;;0.45;87.98
49709;BME280;35601;55.902;13.606;2023-01-29T00:57:59;101144.08;;;0.50;87.71
49709;BME280;35601;55.902;13.606;2023-01-29T01:00:25;101147.21;;;0.53;87.53
49709;BME280;35601;55.902;13.606;2023-01-29T01:02:50;101144.66;;;0.47;87.83
49709;BME280;35601;55.902;13.606;2023-01-29T01:05:16;101139.52;;;0.53;87.68
49709;BME280;35601;55.902;13.606;2023-01-29T01:07:40;101137.88;;;0.20;88.12
49709;BME280;35601;55.902;13.606;2023-01-29T01:10:08;101137.65;;;0.16;88.34
49709;BME280;35601;55.902;13.606;2023-01-29T01:12:31;101140.96;;;0.24;88.19
49709;BME280;35601;55.902;13.606;2023-01-29T01:14:57;101135.03;;;0.34;87.75
49709;BME280;35601;55.902;13.606;2023-01-29T01:17:22;101130.22;;;0.40;87.54
49709;BME280;35601;55.902;13.606;2023-01-29T01:19:48;101126.96;;;0.54;87.83
49709;BME280;35601;55.902;13.606;2023-01-29T01:22:13;101120.31;;;0.57;87.80
49709;BME280;35601;55.902;13.606;2023-01-29T01:24:38;101115.26;;;0.32;87.55
49709;BME280;35601;55.902;13.606;2023-01-29T01:27:04;101114.38;;;0.51;87.91
49709;BME280;35601;55.902;13.606;2023-01-29T01:29:29;101112.11;;;0.49;88.11
49709;BME280;35601;55.902;13.606;2023-01-29T01:31:55;101114.13;;;0.55;88.02
49709;BME280;35601;55.902;13.606;2023-01-29T01:34:20;101118.95;;;0.68;87.52
49709;BME280;35601;55.902;13.606;2023-01-29T01:36:46;101114.04;;;0.63;87.56
49709;BME280;35601;55.902;13.606;2023-01-29T01:39:11;101117.50;;;0.76;88.00
49709;BME280;35601;55.902;13.606;2023-01-29T01:41:37;101121.84;;;0.24;88.40
49709;BME280;35601;55.902;13.606;2023-01-29T01:44:04;101118.63;;;0.16;88.65
49709;BME280;35601;55.902;13.606;2023-01-29T01:46:30;101108.45;;;0.22;88.64
49709;BME280;35601;55.902;13.606;2023-01-29T01:48:58;101103.49;;;0.30;88.07
49709;BME280;35601;55.902;13.606;2023-01-29T01:51:21;101104.35;;;0.32;87.90
49709;BME280;35601;55.902;13.606;2023-01-29T01:53:50;101106.84;;;0.60;87.70
49709;BME280;35601;55.902;13.606;2023-01-29T01:56:13;101105.45;;;0.73;88.22
49709;BME280;35601;55.902;13.606;2023-01-29T01:58:38;101102.97;;;0.37;87.84
49709;BME280;35601;55.902;13.606;2023-01-29T02:01:02;101102.72;;;0.42;87.64
49709;BME280;35601;55.902;13.606;2023-01-29T02:03:27;101103.18;;;0.77;87.33
49709;BME280;35601;55.902;13.606;2023-01-29T02:05:54;101104.98;;;0.45;87.68
49709;BME280;35601;55.902;13.606;2023-01-29T02:08:22;101104.10;;;0.37;87.99
49709;BME280;35601;55.902;13.606;2023-01-29T02:10:44;101102.55;;;0.87;87.77
49709;BME280;35601;55.902;13.606;2023-01-29T02:13:08;101099.54;;;0.38;87.78
49709;BME280;35601;55.902;13.606;2023-01-29T02:15:33;101099.61;;;0.77;88.54
49709;BME280;35601;55.902;13.606;2023-01-29T02:17:59;101097.18;;;0.48;88.61
49709;BME280;35601;55.902;13.606;2023-01-29T02:20:26;101094.45;;;0.52;88.58
49709;BME280;35601;55.902;13.606;2023-01-29T02:23:08;101094.39;;;0.48;88.70
49709;BME280;35601;55.902;13.606;2023-01-29T02:30:10;101084.16;;;0.34;88.60
49709;BME280;35601;55.902;13.606;2023-01-29T02:32:37;101078.15;;;0.38;88.11
49709;BME280;35601;55.902;13.606;2023-01-29T02:35:07;101070.06;;;0.49;88.94
49709;BME280;35601;55.902;13.606;2023-01-29T02:37:28;101088.41;;;0.36;88.49
49709;BME280;35601;55.902;13.606;2023-01-29T02:39:54;101083.80;;;0.62;88.30
49709;BME280;35601;55.902;13.606;2023-01-29T02:42:17;101072.42;;;0.93;88.07
49709;BME280;35601;55.902;13.606;2023-01-29T02:44:42;101084.07;;;0.41;88.11
49709;BME280;35601;55.902;13.606;2023-01-29T02:47:10;101088.21;;;0.43;88.18
49709;BME280;35601;55.902;13.606;2023-01-29T02:49:32;101096.68;;;0.51;87.33
49709;BME280;35601;55.902;13.606;2023-01-29T02:51:59;101101.27;;;0.44;87.66
49709;BME280;35601;55.902;13.606;2023-01-29T02:54:23;101097.75;;;0.59;87.76
49709;BME280;35601;55.902;13.606;2023-01-29T02:56:50;101099.84;;;0.31;88.23
49709;BME280;35601;55.902;13.606;2023-01-29T02:59:13;101100.29;;;0.63;87.80
49709;BME280;35601;55.902;13.606;2023-01-29T03:01:41;101104.94;;;0.56;87.90
49709;BME280;35601;55.902;13.606;2023-01-29T03:04:05;101090.59;;;0.30;87.90
49709;BME280;35601;55.902;13.606;2023-01-29T03:06:31;101092.35;;;0.66;87.50
49709;BME280;35601;55.902;13.606;2023-01-29T03:08:55;101086.36;;;0.82;87.77
49709;BME280;35601;55.902;13.606;2023-01-29T03:11:17;101074.35;;;0.64;87.41
49709;BME280;35601;55.902;13.606;2023-01-29T03:13:44;101067.96;;;0.45;87.15
49709;BME280;35601;55.902;13.606;2023-01-29T03:16:15;101058.67;;;0.93;87.03
49709;BME280;35601;55.902;13.606;2023-01-29T03:18:38;101057.75;;;0.67;87.19
49709;BME280;35601;55.902;13.606;2023-01-29T03:21:04;101058.92;;;0.38;87.14
49709;BME280;35601;55.902;13.606;2023-01-29T03:23:27;101055.73;;;0.56;87.55
49709;BME280;35601;55.902;13.606;2023-01-29T03:25:52;101057.02;;;0.32;87.44
49709;BME280;35601;55.902;13.606;2023-01-29T03:28:17;101057.00;;;0.67;86.98
49709;BME280;35601;55.902;13.606;2023-01-29T03:30:46;101053.05;;;0.54;86.53
49709;BME280;35601;55.902;13.606;2023-01-29T03:33:09;101051.56;;;0.62;86.06
49709;BME280;35601;55.902;13.606;2023-01-29T03:35:35;101037.85;;;0.56;85.95
49709;BME280;35601;55.902;13.606;2023-01-29T03:37:59;101019.37;;;0.59;85.90
49709;BME280;35601;55.902;13.606;2023-01-29T03:40:25;101023.21;;;0.73;85.59
49709;BME280;35601;55.902;13.606;2023-01-29T03:42:58;101030.15;;;0.74;85.19
49709;BME280;35601;55.902;13.606;2023-01-29T03:45:22;101015.63;;;0.74;85.19
49709;BME280;35601;55.902;13.606;2023-01-29T03:47:45;101027.63;;;0.77;84.85
49709;BME280;35601;55.902;13.606;2023-01-29T03:50:10;101020.79;;;0.72;84.90
49709;BME280;35601;55.902;13.606;2023-01-29T03:52:37;101009.13;;;0.72;85.11
49709;BME280;35601;55.902;13.606;2023-01-29T03:54:59;101002.36;;;0.76;84.92
49709;BME280;35601;55.902;13.606;2023-01-29T03:57:28;101009.66;;;0.67;85.20
49709;BME280;35601;55.902;13.606;2023-01-29T03:59:52;101016.90;;;0.38;85.77
49709;BME280;35601;55.902;13.606;2023-01-29T04:02:17;101007.50;;;0.62;85.77
49709;BME280;35601;55.902;13.606;2023-01-29T04:04:41;101008.80;;;0.67;85.62
49709;BME280;35601;55.902;13.606;2023-01-29T04:07:09;100996.20;;;0.54;86.14
49709;BME280;35601;55.902;13.606;2023-01-29T04:09:31;100987.08;;;0.63;86.00
49709;BME280;35601;55.902;13.606;2023-01-29T04:12:00;100982.52;;;0.65;85.91
49709;BME280;35601;55.902;13.606;2023-01-29T04:14:20;100985.00;;;0.96;85.71
49709;BME280;35601;55.902;13.606;2023-01-29T04:16:49;100983.06;;;0.70;85.47
49709;BME280;35601;55.902;13.606;2023-01-29T04:19:10;100978.97;;;0.67;85.50
49709;BME280;35601;55.902;13.606;2023-01-29T04:21:35;100973.69;;;0.77;85.79
49709;BME280;35601;55.902;13.606;2023-01-29T04:24:00;100973.68;;;0.50;86.05
49709;BME280;35601;55.902;13.606;2023-01-29T04:26:44;100989.63;;;0.44;86.42
49709;BME280;35601;55.902;13.606;2023-01-29T04:29:00;100985.35;;;0.53;86.96
49709;BME280;35601;55.902;13.606;2023-01-29T04:31:19;100991.92;;;0.61;86.69
49709;BME280;35601;55.902;13.606;2023-01-29T04:33:49;100988.39;;;0.41;86.36
49709;BME280;35601;55.902;13.606;2023-01-29T04:36:17;100994.15;;;0.51;86.17
49709;BME280;35601;55.902;13.606;2023-01-29T04:38:42;100986.66;;;0.39;86.40
49709;BME280;35601;55.902;13.606;2023-01-29T04:41:03;100977.64;;;0.39;86.50
49709;BME280;35601;55.902;13.606;2023-01-29T04:43:27;100988.06;;;0.39;86.66
49709;BME280;35601;55.902;13.606;2023-01-29T04:45:58;100975.10;;;0.58;86.96
49709;BME280;35601;55.902;13.606;2023-01-29T04:48:20;100975.06;;;0.43;86.60
49709;BME280;35601;55.902;13.606;2023-01-29T04:50:45;100974.54;;;0.50;86.48
49709;BME280;35601;55.902;13.606;2023-01-29T04:53:12;100966.11;;;0.54;85.99
49709;BME280;35601;55.902;13.606;2023-01-29T04:55:37;100964.35;;;0.84;86.00
49709;BME280;35601;55.902;13.606;2023-01-29T04:58:03;100958.36;;;0.24;86.37
49709;BME280;35601;55.902;13.606;2023-01-29T05:00:26;100945.51;;;0.65;86.68
49709;BME280;35601;55.902;13.606;2023-01-29T05:02:48;100954.22;;;0.65;86.84
49709;BME280;35601;55.902;13.606;2023-01-29T05:05:15;100951.58;;;0.38;87.11
49709;BME280;35601;55.902;13.606;2023-01-29T05:07:40;100938.53;;;0.40;87.06
49709;BME280;35601;55.902;13.606;2023-01-29T05:10:07;100947.75;;;0.54;87.34
49709;BME280;35601;55.902;13.606;2023-01-29T05:12:30;100948.82;;;0.27;87.56
49709;BME280;35601;55.902;13.606;2023-01-29T05:14:59;100949.60;;;0.14;88.37
49709;BME280;35601;55.902;13.606;2023-01-29T05:17:21;100942.26;;;0.69;87.85
49709;BME280;35601;55.902;13.606;2023-01-29T05:19:46;100936.41;;;0.24;88.14
49709;BME280;35601;55.902;13.606;2023-01-29T05:22:14;100928.67;;;0.21;88.09
49709;BME280;35601;55.902;13.606;2023-01-29T05:24:37;100924.76;;;0.50;87.64
49709;BME280;35601;55.902;13.606;2023-01-29T05:27:02;100913.25;;;0.46;87.97
49709;BME280;35601;55.902;13.606;2023-01-29T05:29:28;100908.49;;;0.55;87.63
49709;BME280;35601;55.902;13.606;2023-01-29T05:31:53;100909.78;;;0.56;87.49
49709;BME280;35601;55.902;13.606;2023-01-29T05:34:19;100908.59;;;0.54;87.81
49709;BME280;35601;55.902;13.606;2023-01-29T05:36:45;100899.79;;;-0.37;87.41
49709;BME280;35601;55.902;13.606;2023-01-29T05:39:10;100897.77;;;-0.52;86.40
49709;BME280;35601;55.902;13.606;2023-01-29T05:41:35;100899.87;;;0.25;85.83
49709;BME280;35601;55.902;13.606;2023-01-29T05:44:00;100894.22;;;0.61;86.33
49709;BME280;35601;55.902;13.606;2023-01-29T05:46:25;100890.67;;;0.54;86.48
49709;BME280;35601;55.902;13.606;2023-01-29T05:48:51;100883.95;;;0.53;86.66
49709;BME280;35601;55.902;13.606;2023-01-29T05:51:15;100877.50;;;0.37;87.18
49709;BME280;35601;55.902;13.606;2023-01-29T05:53:41;100880.45;;;0.65;87.25
49709;BME280;35601;55.902;13.606;2023-01-29T05:56:07;100877.66;;;0.88;87.18
49709;BME280;35601;55.902;13.606;2023-01-29T05:58:32;100876.48;;;0.62;87.17
49709;BME280;35601;55.902;13.606;2023-01-29T06:01:02;100876.63;;;0.59;87.48
49709;BME280;35601;55.902;13.606;2023-01-29T06:03:22;100871.64;;;0.84;87.54
49709;BME280;35601;55.902;13.606;2023-01-29T06:05:48;100869.86;;;0.50;88.19
49709;BME280;35601;55.902;13.606;2023-01-29T06:08:13;100866.96;;;0.77;88.23
49709;BME280;35601;55.902;13.606;2023-01-29T06:10:39;100862.56;;;0.35;88.07
49709;BME280;35601;55.902;13.606;2023-01-29T06:13:05;100859.01;;;0.58;87.88
49709;BME280;35601;55.902;13.606;2023-01-29T06:15:31;100848.36;;;0.37;88.76
49709;BME280;35601;55.902;13.606;2023-01-29T06:17:56;100844.07;;;0.42;88.66
49709;BME280;35601;55.902;13.606;2023-01-29T06:20:22;100842.83;;;0.36;89.05
49709;BME280;35601;55.902;13.606;2023-01-29T06:22:47;100837.89;;;0.65;88.94
49709;BME280;35601;55.902;13.606;2023-01-29T06:25:13;100835.91;;;0.28;88.69
49709;BME280;35601;55.902;13.606;2023-01-29T06:27:38;100842.30;;;0.54;88.52
49709;BME280;35601;55.902;13.606;2023-01-29T06:30:05;100844.77;;;0.67;88.81
49709;BME280;35601;55.902;13.606;2023-01-29T06:32:30;100835.64;;;0.43;88.91
49709;BME280;35601;55.902;13.606;2023-01-29T06:34:56;100826.18;;;0.59;89.21
49709;BME280;35601;55.902;13.606;2023-01-29T06:37:21;100829.46;;;0.45;89.03
49709;BME280;35601;55.902;13.606;2023-01-29T06:39:46;100832.30;;;0.34;89.50
49709;BME280;35601;55.902;13.606;2023-01-29T06:42:12;100835.32;;;0.69;89.36
49709;BME280;35601;55.902;13.606;2023-01-29T06:44:37;100839.46;;;0.50;89.24
49709;BME280;35601;55.902;13.606;2023-01-29T06:47:02;100841.82;;;0.73;89.22
49709;BME280;35601;55.902;13.606;2023-01-29T06:49:28;100847.40;;;0.71;89.40
49709;BME280;35601;55.902;13.606;2023-01-29T06:51:53;100854.82;;;0.72;89.14
49709;BME280;35601;55.902;13.606;2023-01-29T06:54:19;100848.38;;;0.58;89.07
49709;BME280;35601;55.902;13.606;2023-01-29T06:56:44;100842.15;;;0.44;88.47
49709;BME280;35601;55.902;13.606;2023-01-29T06:59:10;100844.57;;;0.48;88.42
49709;BME280;35601;55.902;13.606;2023-01-29T07:01:38;100849.40;;;0.92;88.40
49709;BME280;35601;55.902;13.606;2023-01-29T07:04:01;100851.93;;;0.80;87.98
49709;BME280;35601;55.902;13.606;2023-01-29T07:06:28;100862.36;;;0.72;87.47
49709;BME280;35601;55.902;13.606;2023-01-29T07:08:52;100864.67;;;0.96;86.98
49709;BME280;35601;55.902;13.606;2023-01-29T07:11:18;100874.13;;;0.93;87.18
49709;BME280;35601;55.902;13.606;2023-01-29T07:13:43;100873.75;;;0.54;87.73
49709;BME280;35601;55.902;13.606;2023-01-29T07:16:09;100868.47;;;0.43;88.22
49709;BME280;35601;55.902;13.606;2023-01-29T07:18:35;100867.08;;;0.88;88.38
49709;BME280;35601;55.902;13.606;2023-01-29T07:21:04;100873.80;;;0.52;87.94
49709;BME280;35601;55.902;13.606;2023-01-29T07:23:26;100871.60;;;0.57;88.11
49709;BME280;35601;55.902;13.606;2023-01-29T07:25:51;100871.97;;;0.54;88.07
49709;BME280;35601;55.902;13.606;2023-01-29T07:28:17;100876.86;;;0.71;88.30
49709;BME280;35601;55.902;13.606;2023-01-29T07:30:42;100874.93;;;0.59;87.94
49709;BME280;35601;55.902;13.606;2023-01-29T07:33:09;100874.76;;;0.63;88.56
49709;BME280;35601;55.902;13.606;2023-01-29T07:35:36;100871.92;;;0.99;88.41
49709;BME280;35601;55.902;13.606;2023-01-29T07:37:58;100874.50;;;0.81;88.05
49709;BME280;35601;55.902;13.606;2023-01-29T07:40:23;100876.27;;;1.00;88.19
49709;BME280;35601;55.902;13.606;2023-01-29T07:42:49;100881.70;;;0.98;88.19
49709;BME280;35601;55.902;13.606;2023-01-29T07:45:15;100888.10;;;0.88;87.87
49709;BME280;35601;55.902;13.606;2023-01-29T07:47:40;100884.54;;;0.66;88.09
49709;BME280;35601;55.902;13.606;2023-01-29T07:50:06;100885.76;;;0.75;88.71
49709;BME280;35601;55.902;13.606;2023-01-29T07:52:32;100883.14;;;0.65;88.36
49709;BME280;35601;55.902;13.606;2023-01-29T07:54:57;100883.79;;;0.90;88.24
49709;BME280;35601;55.902;13.606;2023-01-29T07:57:23;100876.75;;;1.03;87.94
49709;BME280;35601;55.902;13.606;2023-01-29T07:59:48;100861.93;;;0.64;87.34
49709;BME280;35601;55.902;13.606;2023-01-29T08:02:13;100857.04;;;0.61;87.53
49709;BME280;35601;55.902;13.606;2023-01-29T08:04:39;100858.21;;;0.45;87.83
49709;BME280;35601;55.902;13.606;2023-01-29T08:07:05;100855.62;;;0.67;88.75
49709;BME280;35601;55.902;13.606;2023-01-29T08:09:30;100851.06;;;0.80;88.55
49709;BME280;35601;55.902;13.606;2023-01-29T08:11:56;100853.59;;;0.37;88.27
49709;BME280;35601;55.902;13.606;2023-01-29T08:14:22;100850.36;;;0.79;88.35
49709;BME280;35601;55.902;13.606;2023-01-29T08:16:46;100842.50;;;0.56;88.97
49709;BME280;35601;55.902;13.606;2023-01-29T08:19:13;100840.91;;;0.74;88.74
49709;BME280;35601;55.902;13.606;2023-01-29T08:21:38;100846.17;;;0.19;88.84
49709;BME280;35601;55.902;13.606;2023-01-29T08:24:04;100836.07;;;0.77;88.75
49709;BME280;35601;55.902;13.606;2023-01-29T08:26:29;100819.42;;;0.91;88.37
49709;BME280;35601;55.902;13.606;2023-01-29T08:28:54;100815.50;;;0.55;88.45
49709;BME280;35601;55.902;13.606;2023-01-29T08:31:19;100801.86;;;0.60;88.23
49709;BME280;35601;55.902;13.606;2023-01-29T08:33:45;100799.65;;;0.67;87.93
49709;BME280;35601;55.902;13.606;2023-01-29T08:36:10;100802.34;;;0.68;87.92
49709;BME280;35601;55.902;13.606;2023-01-29T08:38:35;100794.01;;;0.92;87.95
49709;BME280;35601;55.902;13.606;2023-01-29T08:41:01;100788.86;;;0.82;88.32
49709;BME280;35601;55.902;13.606;2023-01-29T08:43:26;100786.65;;;0.78;87.77
49709;BME280;35601;55.902;13.606;2023-01-29T08:45:51;100790.08;;;1.08;87.39
49709;BME280;35601;55.902;13.606;2023-01-29T08:48:17;100788.58;;;0.55;87.49
49709;BME280;35601;55.902;13.606;2023-01-29T08:50:42;100778.59;;;0.69;87.84
49709;BME280;35601;55.902;13.606;2023-01-29T08:53:08;100780.62;;;0.64;87.38
49709;BME280;35601;55.902;13.606;2023-01-29T08:55:34;100778.42;;;0.65;87.20
49709;BME280;35601;55.902;13.606;2023-01-29T08:57:59;100785.40;;;0.95;87.10
49709;BME280;35601;55.902;13.606;2023-01-29T09:00:24;100788.99;;;1.01;86.81
49709;BME280;35601;55.902;13.606;2023-01-29T09:02:49;100783.56;;;0.84;86.53
49709;BME280;35601;55.902;13.606;2023-01-29T09:05:15;100782.65;;;0.82;86.63
49709;BME280;35601;55.902;13.606;2023-01-29T09:07:40;100766.72;;;0.95;86.15
49709;BME280;35601;55.902;13.606;2023-01-29T09:10:08;100753.27;;;1.01;86.00
49709;BME280;35601;55.902;13.606;2023-01-29T09:12:32;100745.29;;;0.62;86.43
49709;BME280;35601;55.902;13.606;2023-01-29T09:14:57;100746.49;;;0.99;86.71
49709;BME280;35601;55.902;13.606;2023-01-29T09:17:23;100741.54;;;1.01;86.97
49709;BME280;35601;55.902;13.606;2023-01-29T09:19:49;100740.63;;;0.72;87.14
49709;BME280;35601;55.902;13.606;2023-01-29T09:22:14;100749.18;;;0.97;87.16
49709;BME280;35601;55.902;13.606;2023-01-29T09:24:39;100745.36;;;0.95;87.32
49709;BME280;35601;55.902;13.606;2023-01-29T09:27:05;100733.11;;;0.94;87.69
49709;BME280;35601;55.902;13.606;2023-01-29T09:29:31;100731.96;;;1.10;87.35
49709;BME280;35601;55.902;13.606;2023-01-29T09:31:56;100738.70;;;0.93;87.61
49709;BME280;35601;55.902;13.606;2023-01-29T09:34:22;100739.26;;;0.91;87.28
49709;BME280;35601;55.902;13.606;2023-01-29T09:36:47;100735.32;;;1.17;87.95
49709;BME280;35601;55.902;13.606;2023-01-29T09:39:13;100733.35;;;0.56;88.43
49709;BME280;35601;55.902;13.606;2023-01-29T09:41:47;100733.12;;;0.88;88.35
49709;BME280;35601;55.902;13.606;2023-01-29T09:44:10;100723.25;;;0.85;87.73
49709;BME280;35601;55.902;13.606;2023-01-29T09:46:34;100715.07;;;0.92;87.38
49709;BME280;35601;55.902;13.606;2023-01-29T09:49:00;100707.94;;;1.29;86.95
49709;BME280;35601;55.902;13.606;2023-01-29T09:51:25;100710.29;;;1.14;86.68
49709;BME280;35601;55.902;13.606;2023-01-29T09:53:50;100714.47;;;1.43;86.39
49709;BME280;35601;55.902;13.606;2023-01-29T09:56:14;100717.16;;;1.20;87.15
49709;BME280;35601;55.902;13.606;2023-01-29T09:58:37;100719.20;;;1.18;86.37
49709;BME280;35601;55.902;13.606;2023-01-29T10:01:11;100723.45;;;1.19;86.16
49709;BME280;35601;55.902;13.606;2023-01-29T10:03:51;100726.07;;;1.46;85.88
49709;BME280;35601;55.902;13.606;2023-01-29T10:06:04;100713.74;;;1.28;85.91
49709;BME280;35601;55.902;13.606;2023-01-29T10:08:35;100708.95;;;1.31;85.64
49709;BME280;35601;55.902;13.606;2023-01-29T10:10:48;100714.88;;;1.27;85.57
49709;BME280;35601;55.902;13.606;2023-01-29T10:13:15;100707.48;;;1.37;85.66
49709;BME280;35601;55.902;13.606;2023-01-29T10:15:45;100706.85;;;1.33;85.36
49709;BME280;35601;55.902;13.606;2023-01-29T10:18:15;100713.47;;;1.10;86.10
49709;BME280;35601;55.902;13.606;2023-01-29T10:20:34;100715.39;;;1.40;86.03
49709;BME280;35601;55.902;13.606;2023-01-29T10:23:03;100706.61;;;1.23;85.99
49709;BME280;35601;55.902;13.606;2023-01-29T10:25:20;100693.12;;;1.38;85.38
49709;BME280;35601;55.902;13.606;2023-01-29T10:27:47;100692.94;;;1.32;86.03
49709;BME280;35601;55.902;13.606;2023-01-29T10:32:34;100691.74;;;1.36;86.05
49709;BME280;35601;55.902;13.606;2023-01-29T10:35:02;100684.54;;;1.29;85.50
49709;BME280;35601;55.902;13.606;2023-01-29T10:37:32;100683.42;;;1.76;85.46
49709;BME280;35601;55.902;13.606;2023-01-29T10:39:50;100696.06;;;1.42;85.45
49709;BME280;35601;55.902;13.606;2023-01-29T10:42:23;100687.47;;;1.30;84.65
49709;BME280;35601;55.902;13.606;2023-01-29T10:44:50;100689.47;;;1.51;84.73
49709;BME280;35601;55.902;13.606;2023-01-29T10:47:20;100691.85;;;1.56;85.06
49709;BME280;35601;55.902;13.606;2023-01-29T10:49:40;100687.48;;;1.13;84.97
49709;BME280;35601;55.902;13.606;2023-01-29T10:52:08;100682.48;;;1.51;84.71
49709;BME280;35601;55.902;13.606;2023-01-29T10:54:37;100683.13;;;1.65;84.01
49709;BME280;35601;55.902;13.606;2023-01-29T10:56:59;100679.27;;;1.31;84.78
49709;BME280;35601;55.902;13.606;2023-01-29T10:59:30;100682.62;;;1.47;85.35
49709;BME280;35601;55.902;13.606;2023-01-29T11:01:39;100680.58;;;1.63;84.87
49709;BME280;35601;55.902;13.606;2023-01-29T11:04:09;100687.60;;;1.31;85.04
49709;BME280;35601;55.902;13.606;2023-01-29T11:06:33;100686.12;;;1.40;84.84
49709;BME280;35601;55.902;13.606;2023-01-29T11:09:03;100688.14;;;1.46;84.61
49709;BME280;35601;55.902;13.606;2023-01-29T11:11:25;100684.43;;;1.61;84.06
49709;BME280;35601;55.902;13.606;2023-01-29T11:13:52;100684.67;;;1.55;83.73
49709;BME280;35601;55.902;13.606;2023-01-29T11:16:12;100684.29;;;1.41;83.95
49709;BME280;35601;55.902;13.606;2023-01-29T11:18:52;100681.87;;;1.55;83.71
49709;BME280;35601;55.902;13.606;2023-01-29T11:21:03;100675.37;;;1.68;83.23
49709;BME280;35601;55.902;13.606;2023-01-29T11:23:29;100679.46;;;1.53;83.34
49709;BME280;35601;55.902;13.606;2023-01-29T11:25:55;100670.82;;;1.62;83.28
49709;BME280;35601;55.902;13.606;2023-01-29T11:30:43;100670.97;;;1.34;83.88
49709;BME280;35601;55.902;13.606;2023-01-29T11:33:16;100661.12;;;1.39;83.72
49709;BME280;35601;55.902;13.606;2023-01-29T11:35:35;100656.69;;;1.43;83.95
49709;BME280;35601;55.902;13.606;2023-01-29T11:38:06;100649.01;;;1.16;84.08
49709;BME280;35601;55.902;13.606;2023-01-29T11:40:35;100650.35;;;1.54;83.47
49709;BME280;35601;55.902;13.606;2023-01-29T11:42:51;100649.64;;;1.57;83.41
49709;BME280;35601;55.902;13.606;2023-01-29T11:45:24;100646.87;;;1.64;83.13
49709;BME280;35601;55.902;13.606;2023-01-29T11:47:47;100640.39;;;1.57;83.52
49709;BME280;35601;55.902;13.606;2023-01-29T11:50:18;100626.39;;;1.74;83.27
49709;BME280;35601;55.902;13.606;2023-01-29T11:52:36;100625.99;;;1.77;83.10
49709;BME280;35601;55.902;13.606;2023-01-29T11:55:02;100621.74;;;1.78;83.28
49709;BME280;35601;55.902;13.606;2023-01-29T11:57:27;100611.42;;;1.50;82.92
49709;BME280;35601;55.902;13.606;2023-01-29T11:59:51;100605.04;;;1.81;83.39
49709;BME280;35601;55.902;13.606;2023-01-29T12:02:24;100598.46;;;1.62;83.33
49709;BME280;35601;55.902;13.606;2023-01-29T12:04:40;100588.76;;;1.64;83.23
49709;BME280;35601;55.902;13.606;2023-01-29T12:07:11;100584.44;;;1.90;83.34
49709;BME280;35601;55.902;13.606;2023-01-29T12:09:31;100579.40;;;1.50;83.00
49709;BME280;35601;55.902;13.606;2023-01-29T12:14:27;100564.25;;;1.83;83.29
49709;BME280;35601;55.902;13.606;2023-01-29T12:16:51;100555.91;;;1.73;83.18
49709;BME280;35601;55.902;13.606;2023-01-29T12:19:18;100557.76;;;1.66;82.80
49709;BME280;35601;55.902;13.606;2023-01-29T12:21:44;100552.54;;;1.42;82.44
49709;BME280;35601;55.902;13.606;2023-01-29T12:24:09;100543.54;;;2.01;82.05
49709;BME280;35601;55.902;13.606;2023-01-29T12:26:32;100537.81;;;1.44;82.86
49709;BME280;35601;55.902;13.606;2023-01-29T12:29:09;100538.33;;;1.57;82.64
49709;BME280;35601;55.902;13.606;2023-01-29T12:31:27;100529.97;;;1.76;82.61
49709;BME280;35601;55.902;13.606;2023-01-29T12:33:49;100514.46;;;1.54;82.55
49709;BME280;35601;55.902;13.606;2023-01-29T12:36:16;100503.25;;;1.90;82.29
49709;BME280;35601;55.902;13.606;2023-01-29T12:38:36;100495.07;;;1.67;82.46
49709;BME280;35601;55.902;13.606;2023-01-29T12:41:06;100490.94;;;1.88;82.36
49709;BME280;35601;55.902;13.606;2023-01-29T12:43:30;100483.52;;;1.48;82.17
49709;BME280;35601;55.902;13.606;2023-01-29T12:45:54;100481.56;;;1.42;82.38
49709;BME280;35601;55.902;13.606;2023-01-29T12:48:22;100472.93;;;1.86;82.46
49709;BME280;35601;55.902;13.606;2023-01-29T12:50:44;100465.73;;;1.76;82.73
49709;BME280;35601;55.902;13.606;2023-01-29T12:53:19;100466.78;;;1.64;82.80